createdAt,value
2023-01-09T00:01:32.479Z,1.73
2023-01-09T00:04:00.835Z,3.20
2023-01-09T00:06:28.378Z,2.38
2023-01-09T00:08:56.555Z,4.00
2023-01-09T00:11:24.166Z,2.38
2023-01-09T00:13:51.740Z,2.13
2023-01-09T00:16:19.595Z,1.20
2023-01-09T00:18:47.123Z,1.83
2023-01-09T00:21:16.162Z,1.55
2023-01-09T00:23:43.626Z,1.02
2023-01-09T00:26:19.016Z,1.67
2023-01-09T00:28:49.173Z,1.80
2023-01-09T00:31:19.111Z,1.17
2023-01-09T00:34:06.944Z,1.80
2023-01-09T00:36:34.399Z,2.22
2023-01-09T00:39:01.820Z,2.88
2023-01-09T00:41:40.881Z,1.42
2023-01-09T00:44:29.859Z,3.00
2023-01-09T00:47:11.010Z,2.95
2023-01-09T00:49:38.543Z,2.65
2023-01-09T00:52:10.303Z,1.50
2023-01-09T00:57:07.972Z,2.25
2023-01-09T00:59:35.736Z,2.28
2023-01-09T01:02:04.032Z,1.17
2023-01-09T01:04:50.764Z,1.83
2023-01-09T01:07:36.818Z,2.58
2023-01-09T01:10:12.540Z,2.33
2023-01-09T01:12:40.953Z,2.30
2023-01-09T01:15:11.215Z,2.25
2023-01-09T01:17:42.002Z,1.63
2023-01-09T01:20:15.082Z,2.03
2023-01-09T01:22:43.004Z,3.88
2023-01-09T01:25:13.802Z,4.60
2023-01-09T01:27:41.505Z,2.57
2023-01-09T01:30:14.354Z,4.72
2023-01-09T01:32:42.577Z,3.85
2023-01-09T01:35:11.603Z,3.78
2023-01-09T01:37:40.808Z,6.28
2023-01-09T01:40:11.118Z,2.30
2023-01-09T01:42:50.490Z,4.82
2023-01-09T01:45:28.287Z,4.07
2023-01-09T01:48:17.252Z,2.38
2023-01-09T01:50:53.856Z,5.97
2023-01-09T01:53:50.839Z,4.60
2023-01-09T01:56:28.835Z,3.20
2023-01-09T01:59:10.087Z,3.65
2023-01-09T02:01:42.743Z,4.10
2023-01-09T02:04:11.841Z,4.05
2023-01-09T02:06:41.246Z,5.78
2023-01-09T02:09:09.258Z,4.72
2023-01-09T02:11:36.958Z,5.72
2023-01-09T02:14:04.639Z,6.40
2023-01-09T02:17:06.049Z,4.20
2023-01-09T02:20:07.771Z,3.28
2023-01-09T02:23:21.547Z,3.25
2023-01-09T02:26:15.445Z,4.30
2023-01-09T02:29:22.057Z,4.00
2023-01-09T02:32:33.616Z,3.42
2023-01-09T02:35:34.347Z,3.50
2023-01-09T02:38:15.115Z,4.28
2023-01-09T02:41:49.040Z,5.20
2023-01-09T02:44:28.471Z,5.07
2023-01-09T02:47:07.201Z,4.40
2023-01-09T02:49:39.788Z,5.43
2023-01-09T02:52:25.442Z,4.30
2023-01-09T02:55:18.864Z,4.15
2023-01-09T02:58:01.913Z,5.63
2023-01-09T03:00:58.382Z,4.18
2023-01-09T03:03:49.074Z,5.47
2023-01-09T03:06:41.687Z,4.53
2023-01-09T03:09:20.273Z,5.85
2023-01-09T03:11:58.124Z,5.10
2023-01-09T03:14:26.756Z,6.93
2023-01-09T03:17:02.107Z,6.47
2023-01-09T03:19:33.387Z,5.75
2023-01-09T03:22:01.347Z,5.10
2023-01-09T03:24:28.817Z,7.80
2023-01-09T03:26:56.462Z,8.98
2023-01-09T03:29:23.957Z,9.07
2023-01-09T03:31:51.787Z,7.47
2023-01-09T03:34:20.958Z,9.05
2023-01-09T03:36:48.438Z,8.60
2023-01-09T03:39:15.915Z,9.18
2023-01-09T03:41:43.468Z,9.13
2023-01-09T03:44:10.934Z,8.00
2023-01-09T03:46:38.464Z,9.20
2023-01-09T03:49:05.981Z,6.03
2023-01-09T03:51:33.757Z,7.38
2023-01-09T03:54:07.695Z,7.32
2023-01-09T03:56:38.148Z,7.72
2023-01-09T03:59:08.276Z,7.97
2023-01-09T04:01:36.000Z,6.53
2023-01-09T04:04:03.811Z,9.95
2023-01-09T04:06:31.300Z,7.18
2023-01-09T04:08:58.888Z,7.28
2023-01-09T04:11:26.371Z,6.95
2023-01-09T04:13:53.847Z,6.88
2023-01-09T04:16:21.594Z,8.77
2023-01-09T04:18:49.184Z,5.13
2023-01-09T04:21:16.682Z,6.75
2023-01-09T04:23:45.405Z,8.30
2023-01-09T04:26:13.137Z,5.88
2023-01-09T04:28:40.548Z,7.45
2023-01-09T04:31:07.982Z,7.88
2023-01-09T04:33:36.303Z,11.52
2023-01-09T04:36:04.141Z,6.80
2023-01-09T04:38:31.657Z,7.07
2023-01-09T04:40:59.072Z,8.35
2023-01-09T04:43:29.496Z,5.90
2023-01-09T04:45:57.367Z,7.30
2023-01-09T04:48:25.389Z,8.40
2023-01-09T04:50:52.931Z,8.40
2023-01-09T04:53:20.656Z,6.95
2023-01-09T04:55:48.429Z,6.40
2023-01-09T04:58:16.313Z,8.13
2023-01-09T05:00:43.919Z,6.13
2023-01-09T05:03:11.873Z,7.85
2023-01-09T05:05:51.376Z,9.65
2023-01-09T05:08:29.713Z,7.70
2023-01-09T05:11:04.845Z,7.95
2023-01-09T05:13:39.603Z,10.02
2023-01-09T05:16:08.719Z,8.93
2023-01-09T05:18:39.089Z,11.05
2023-01-09T05:21:06.848Z,6.97
2023-01-09T05:23:37.827Z,10.70
2023-01-09T05:28:39.178Z,9.68
2023-01-09T05:31:06.859Z,9.43
2023-01-09T05:33:34.840Z,7.60
2023-01-09T05:36:07.885Z,8.73
2023-01-09T05:38:36.545Z,7.15
2023-01-09T05:41:09.711Z,7.57
2023-01-09T05:43:41.611Z,7.78
2023-01-09T05:46:09.692Z,7.97
2023-01-09T05:48:48.721Z,6.53
2023-01-09T05:51:24.183Z,6.97
2023-01-09T05:53:54.807Z,7.45
2023-01-09T05:56:30.423Z,8.38
2023-01-09T05:58:59.477Z,10.73
2023-01-09T06:01:35.473Z,9.88
2023-01-09T06:04:05.752Z,6.20
2023-01-09T06:06:36.762Z,8.45
2023-01-09T06:09:05.596Z,7.10
2023-01-09T06:11:38.326Z,9.63
2023-01-09T06:14:11.519Z,10.73
2023-01-09T06:16:39.680Z,10.30
2023-01-09T06:19:07.541Z,9.85
2023-01-09T06:21:37.795Z,7.72
2023-01-09T06:24:08.249Z,10.00
2023-01-09T06:26:41.824Z,8.40
2023-01-09T06:29:09.708Z,7.20
2023-01-09T06:31:40.657Z,8.00
2023-01-09T06:34:12.112Z,9.88
2023-01-09T06:36:45.503Z,13.30
2023-01-09T06:39:14.199Z,9.45
2023-01-09T06:41:41.750Z,8.95
2023-01-09T06:44:09.512Z,9.82
2023-01-09T06:46:37.381Z,8.73
2023-01-09T06:49:09.992Z,7.80
2023-01-09T06:51:40.636Z,12.95
2023-01-09T06:54:08.155Z,8.60
2023-01-09T06:56:35.866Z,8.55
2023-01-09T06:59:03.300Z,8.85
2023-01-09T07:01:30.914Z,11.07
2023-01-09T07:03:58.654Z,10.32
2023-01-09T07:06:26.496Z,8.25
2023-01-09T07:08:54.053Z,10.70
2023-01-09T07:11:21.480Z,11.13
2023-01-09T07:13:48.930Z,8.82
2023-01-09T07:16:16.502Z,9.25
2023-01-09T07:18:44.724Z,9.63
2023-01-09T07:21:12.271Z,8.55
2023-01-09T07:23:42.826Z,7.75
2023-01-09T07:26:10.579Z,11.88
2023-01-09T07:28:38.359Z,8.48
2023-01-09T07:31:07.649Z,14.43
2023-01-09T07:33:35.672Z,9.82
2023-01-09T07:36:03.100Z,8.27
2023-01-09T07:38:30.628Z,11.55
2023-01-09T07:40:58.216Z,9.30
2023-01-09T07:43:25.718Z,8.63
2023-01-09T07:45:53.192Z,11.77
2023-01-09T07:48:21.054Z,10.95
2023-01-09T07:50:48.973Z,11.32
2023-01-09T07:53:16.455Z,7.63
2023-01-09T07:55:44.671Z,12.43
2023-01-09T07:58:12.202Z,10.55
2023-01-09T08:00:39.846Z,10.68
2023-01-09T08:03:07.548Z,9.02
2023-01-09T08:05:35.495Z,7.88
2023-01-09T08:08:03.032Z,7.18
2023-01-09T08:10:30.514Z,10.02
2023-01-09T08:12:58.158Z,9.23
2023-01-09T08:15:25.624Z,10.18
2023-01-09T08:17:53.268Z,11.55
2023-01-09T08:20:20.720Z,8.30
2023-01-09T08:22:53.545Z,10.57
2023-01-09T08:25:21.474Z,10.60
2023-01-09T08:27:49.631Z,7.55
2023-01-09T08:30:18.412Z,9.10
2023-01-09T08:32:52.207Z,7.10
2023-01-09T08:35:20.646Z,6.80
2023-01-09T08:37:49.071Z,8.52
2023-01-09T08:40:17.799Z,7.32
2023-01-09T08:43:04.374Z,9.90
2023-01-09T08:45:51.370Z,7.35
2023-01-09T08:48:19.084Z,8.77
2023-01-09T08:50:46.681Z,8.60
2023-01-09T08:53:15.551Z,7.13
2023-01-09T08:55:43.522Z,8.88
2023-01-09T08:58:11.186Z,8.45
2023-01-09T09:00:39.210Z,9.88
2023-01-09T09:03:06.741Z,8.90
2023-01-09T09:05:34.329Z,7.63
2023-01-09T09:08:04.124Z,7.18
2023-01-09T09:10:32.356Z,10.27
2023-01-09T09:13:00.230Z,9.25
2023-01-09T09:15:28.609Z,12.25
2023-01-09T09:18:00.609Z,8.93
2023-01-09T09:20:35.472Z,9.07
2023-01-09T09:23:03.577Z,7.65
2023-01-09T09:25:31.550Z,7.43
2023-01-09T09:28:00.988Z,7.15
2023-01-09T09:30:28.808Z,9.40
2023-01-09T09:32:56.576Z,8.68
2023-01-09T09:35:24.060Z,8.75
2023-01-09T09:38:05.313Z,8.35
2023-01-09T09:41:07.560Z,7.30
2023-01-09T09:44:48.487Z,8.05
2023-01-09T09:47:48.733Z,8.40
2023-01-09T09:50:50.657Z,9.25
2023-01-09T09:53:32.961Z,9.90
2023-01-09T09:56:02.614Z,8.32
2023-01-09T09:59:00.120Z,6.72
2023-01-09T10:01:39.751Z,9.80
2023-01-09T10:04:16.605Z,8.07
2023-01-09T10:06:52.987Z,8.65
2023-01-09T10:09:49.196Z,7.07
2023-01-09T10:12:31.256Z,9.48
2023-01-09T10:15:26.606Z,6.68
2023-01-09T10:18:14.549Z,9.55
2023-01-09T10:21:07.306Z,11.30
2023-01-09T10:24:02.251Z,11.60
2023-01-09T10:26:38.137Z,9.48
2023-01-09T10:30:02.544Z,8.23
2023-01-09T10:33:01.648Z,8.60
2023-01-09T10:35:59.391Z,11.13
2023-01-09T10:38:39.758Z,9.98
2023-01-09T10:41:43.487Z,10.82
2023-01-09T10:44:37.340Z,11.18
2023-01-09T10:47:17.216Z,9.90
2023-01-09T10:49:47.778Z,10.60
2023-01-09T10:52:34.607Z,11.40
2023-01-09T10:55:42.831Z,8.13
2023-01-09T10:58:20.444Z,8.30
2023-01-09T11:00:50.909Z,6.57
2023-01-09T11:03:23.279Z,9.68
2023-01-09T11:06:03.108Z,7.78
2023-01-09T11:08:43.143Z,6.72
2023-01-09T11:11:12.773Z,10.48
2023-01-09T11:13:45.346Z,9.73
2023-01-09T11:16:23.788Z,9.80
2023-01-09T11:18:59.411Z,8.77
2023-01-09T11:21:41.838Z,9.68
2023-01-09T11:24:18.446Z,9.60
2023-01-09T11:26:48.059Z,9.73
2023-01-09T11:29:24.484Z,8.48
2023-01-09T11:32:00.293Z,9.60
2023-01-09T11:34:33.020Z,9.63
2023-01-09T11:37:15.965Z,10.82
2023-01-09T11:39:48.079Z,8.63
2023-01-09T11:42:44.391Z,9.88
2023-01-09T11:45:25.067Z,9.15
2023-01-09T11:47:52.953Z,9.60
2023-01-09T11:50:29.964Z,9.45
2023-01-09T11:53:18.097Z,10.95
2023-01-09T11:55:56.824Z,13.18
2023-01-09T11:58:24.632Z,11.35
2023-01-09T12:01:13.561Z,9.57
2023-01-09T12:04:09.912Z,12.27
2023-01-09T12:07:31.443Z,13.65
2023-01-09T12:10:45.383Z,9.20
2023-01-09T12:13:59.988Z,10.30
2023-01-09T12:16:52.166Z,14.32
2023-01-09T12:19:28.668Z,11.68
2023-01-09T12:22:37.349Z,9.32
2023-01-09T12:25:29.174Z,11.85
2023-01-09T12:28:15.600Z,11.27
2023-01-09T12:31:12.275Z,13.30
2023-01-09T12:34:05.529Z,14.77
2023-01-09T12:37:20.865Z,12.55
2023-01-09T12:40:07.639Z,13.52
2023-01-09T12:42:41.358Z,13.88
2023-01-09T12:45:38.899Z,18.65
2023-01-09T12:48:36.746Z,15.13
2023-01-09T12:51:55.293Z,13.55
2023-01-09T12:54:42.813Z,12.02
2023-01-09T12:57:22.089Z,14.63
2023-01-09T13:00:00.392Z,12.85
2023-01-09T13:02:44.601Z,10.32
2023-01-09T13:05:33.854Z,12.68
2023-01-09T13:08:12.725Z,12.45
2023-01-09T13:10:46.289Z,13.65
2023-01-09T13:13:25.992Z,13.45
2023-01-09T13:15:58.723Z,12.80
2023-01-09T13:18:35.836Z,12.88
2023-01-09T13:21:03.786Z,13.60
2023-01-09T13:23:53.670Z,13.95
2023-01-09T13:26:27.346Z,11.60
2023-01-09T13:29:21.673Z,11.85
2023-01-09T13:32:14.581Z,11.13
2023-01-09T13:34:48.744Z,12.38
2023-01-09T13:37:24.773Z,14.43
2023-01-09T13:40:21.463Z,15.23
2023-01-09T13:43:11.009Z,16.20
2023-01-09T13:45:40.418Z,13.52
2023-01-09T13:48:19.947Z,13.48
2023-01-09T13:50:50.941Z,15.18
2023-01-09T13:53:18.354Z,15.00
2023-01-09T13:55:58.569Z,17.55
2023-01-09T13:58:29.045Z,15.88
2023-01-09T14:01:01.728Z,14.95
2023-01-09T14:03:38.454Z,17.05
2023-01-09T14:06:14.328Z,9.52
2023-01-09T14:08:44.321Z,14.88
2023-01-09T14:11:20.697Z,10.95
2023-01-09T14:14:04.439Z,10.65
2023-01-09T14:16:32.966Z,11.25
2023-01-09T14:19:15.792Z,12.00
2023-01-09T14:22:03.068Z,11.27
2023-01-09T14:24:39.698Z,13.10
2023-01-09T14:27:54.358Z,12.15
2023-01-09T14:30:27.799Z,8.75
2023-01-09T14:33:19.842Z,11.60
2023-01-09T14:36:22.127Z,11.77
2023-01-09T14:38:54.811Z,8.25
2023-01-09T14:42:06.233Z,9.45
2023-01-09T14:44:42.947Z,9.47
2023-01-09T14:47:31.887Z,11.57
2023-01-09T14:50:25.545Z,11.65
2023-01-09T14:53:20.904Z,10.98
2023-01-09T14:55:59.582Z,12.35
2023-01-09T14:58:36.059Z,10.90
2023-01-09T15:01:06.367Z,10.05
2023-01-09T15:03:42.612Z,13.30
2023-01-09T15:06:28.105Z,11.40
2023-01-09T15:09:05.029Z,11.20
2023-01-09T15:11:35.062Z,12.43
2023-01-09T15:14:05.195Z,13.15
2023-01-09T15:16:33.286Z,12.45
2023-01-09T15:19:06.901Z,11.07
2023-01-09T15:21:34.618Z,10.60
2023-01-09T15:24:22.644Z,14.73
2023-01-09T15:26:57.665Z,12.73
2023-01-09T15:29:26.715Z,10.77
2023-01-09T15:32:03.910Z,11.90
2023-01-09T15:34:33.296Z,11.30
2023-01-09T15:37:03.027Z,13.85
2023-01-09T15:39:37.560Z,14.38
2023-01-09T15:42:23.632Z,15.98
2023-01-09T15:44:53.730Z,17.98
2023-01-09T15:47:27.862Z,13.02
2023-01-09T15:49:57.874Z,12.82
2023-01-09T15:52:26.102Z,11.85
2023-01-09T15:54:53.515Z,11.85
2023-01-09T15:57:32.572Z,16.90
2023-01-09T16:00:39.503Z,12.52
2023-01-09T16:03:20.388Z,11.55
2023-01-09T16:05:58.056Z,12.15
2023-01-09T16:08:30.474Z,11.38
2023-01-09T16:11:06.753Z,12.52
2023-01-09T16:13:45.682Z,10.90
2023-01-09T16:16:25.048Z,11.45
2023-01-09T16:18:55.958Z,14.32
2023-01-09T16:21:31.412Z,17.33
2023-01-09T16:24:03.707Z,16.67
2023-01-09T16:26:32.346Z,14.65
2023-01-09T16:29:38.856Z,9.85
2023-01-09T16:32:17.054Z,9.95
2023-01-09T16:34:47.296Z,7.38
2023-01-09T16:37:14.822Z,10.05
2023-01-09T16:40:05.337Z,13.13
2023-01-09T16:42:51.940Z,11.10
2023-01-09T16:45:20.972Z,8.48
2023-01-09T16:47:48.395Z,8.63
2023-01-09T16:50:15.956Z,8.25
2023-01-09T16:52:44.799Z,8.13
2023-01-09T16:55:13.345Z,10.88
2023-01-09T16:57:41.516Z,8.80
2023-01-09T17:00:20.610Z,7.40
2023-01-09T17:02:48.438Z,9.07
2023-01-09T17:05:15.925Z,9.85
2023-01-09T17:07:43.394Z,5.80
2023-01-09T17:10:21.403Z,9.77
2023-01-09T17:12:49.750Z,6.95
2023-01-09T17:15:17.907Z,12.18
2023-01-09T17:17:45.418Z,10.05
2023-01-09T17:20:19.153Z,10.10
2023-01-09T17:22:46.729Z,13.43
2023-01-09T17:25:43.986Z,8.00
2023-01-09T17:28:32.030Z,13.55
2023-01-09T17:31:06.744Z,11.98
2023-01-09T17:33:34.650Z,7.63
2023-01-09T17:36:05.817Z,12.02
2023-01-09T17:38:33.360Z,12.23
2023-01-09T17:41:00.812Z,11.40
2023-01-09T17:43:28.324Z,11.60
2023-01-09T17:45:56.440Z,9.93
2023-01-09T17:48:24.005Z,14.98
2023-01-09T17:50:51.708Z,12.07
2023-01-09T17:53:20.767Z,15.05
2023-01-09T17:55:48.970Z,12.07
2023-01-09T17:58:28.904Z,13.55
2023-01-09T18:00:59.882Z,14.52
2023-01-09T18:03:33.309Z,12.00
2023-01-09T18:06:00.939Z,12.55
2023-01-09T18:08:28.844Z,14.23
2023-01-09T18:10:56.303Z,17.50
2023-01-09T18:13:23.765Z,15.25
2023-01-09T18:15:51.177Z,14.23
2023-01-09T18:18:19.978Z,15.02
2023-01-09T18:20:47.491Z,15.18
2023-01-09T18:23:15.186Z,14.18
2023-01-09T18:25:44.148Z,13.35
2023-01-09T18:28:16.879Z,11.73
2023-01-09T18:30:47.663Z,17.38
2023-01-09T18:33:16.070Z,12.73
2023-01-09T18:35:45.364Z,15.70
2023-01-09T18:38:13.681Z,16.20
2023-01-09T18:40:41.853Z,17.02
2023-01-09T18:43:12.799Z,14.25
2023-01-09T18:45:40.503Z,14.48
2023-01-09T18:48:12.987Z,16.48
2023-01-09T18:50:40.445Z,12.95
2023-01-09T18:53:07.840Z,10.27
2023-01-09T18:55:37.636Z,14.63
2023-01-09T18:58:05.918Z,12.82
2023-01-09T19:00:33.381Z,11.90
2023-01-09T19:03:01.088Z,16.52
2023-01-09T19:05:28.598Z,15.90
2023-01-09T19:07:56.767Z,13.88
2023-01-09T19:10:24.169Z,14.38
2023-01-09T19:12:51.605Z,16.08
2023-01-09T19:15:19.148Z,14.98
2023-01-09T19:17:46.921Z,14.88
2023-01-09T19:20:17.203Z,14.02
2023-01-09T19:22:56.703Z,9.55
2023-01-09T19:25:24.155Z,8.82
2023-01-09T19:27:53.493Z,12.05
2023-01-09T19:30:21.813Z,13.15
2023-01-09T19:32:49.894Z,12.85
2023-01-09T19:35:17.630Z,14.73
2023-01-09T19:37:45.082Z,14.40
2023-01-09T19:40:13.097Z,11.82
2023-01-09T19:42:40.582Z,12.25
2023-01-09T19:45:08.854Z,10.52
2023-01-09T19:47:36.666Z,11.25
2023-01-09T19:50:06.404Z,11.45
2023-01-09T19:52:34.449Z,12.00
2023-01-09T19:55:04.639Z,10.43
2023-01-09T19:57:32.096Z,10.48
2023-01-09T19:59:59.525Z,15.40
2023-01-09T20:02:28.028Z,11.35
2023-01-09T20:04:55.852Z,14.63
2023-01-09T20:07:23.344Z,13.82
2023-01-09T20:09:50.937Z,11.52
2023-01-09T20:12:18.341Z,14.93
2023-01-09T20:14:45.974Z,9.82
2023-01-09T20:17:14.538Z,13.15
2023-01-09T20:19:44.074Z,14.38
2023-01-09T20:22:13.151Z,12.95
2023-01-09T20:24:40.786Z,17.33
2023-01-09T20:27:08.569Z,14.90
2023-01-09T20:29:36.032Z,23.30
2023-01-09T20:32:06.132Z,14.65
2023-01-09T20:34:33.549Z,15.18
2023-01-09T20:37:01.014Z,17.98
2023-01-09T20:39:28.515Z,13.27
2023-01-09T20:41:56.051Z,10.52
2023-01-09T20:44:23.667Z,16.55
2023-01-09T20:46:53.551Z,12.27
2023-01-09T20:49:21.387Z,11.88
2023-01-09T20:51:52.406Z,11.77
2023-01-09T20:54:21.903Z,21.02
2023-01-09T20:56:49.884Z,11.88
2023-01-09T20:59:22.564Z,11.38
2023-01-09T21:01:51.068Z,13.73
2023-01-09T21:04:19.458Z,12.75
2023-01-09T21:06:49.644Z,12.05
2023-01-09T21:09:17.832Z,13.93
2023-01-09T21:11:45.544Z,15.77
2023-01-09T21:14:13.066Z,12.93
2023-01-09T21:16:40.615Z,17.20
2023-01-09T21:19:09.161Z,15.20
2023-01-09T21:21:42.244Z,14.40
2023-01-09T21:24:09.926Z,13.23
2023-01-09T21:26:37.621Z,11.68
2023-01-09T21:29:08.255Z,16.90
2023-01-09T21:31:36.018Z,13.65
2023-01-09T21:34:07.813Z,10.43
2023-01-09T21:36:36.391Z,11.80
2023-01-09T21:39:08.115Z,12.68
2023-01-09T21:41:54.687Z,13.38
2023-01-09T21:44:41.011Z,14.65
2023-01-09T21:47:08.881Z,15.48
2023-01-09T21:49:43.641Z,16.55
2023-01-09T21:52:13.018Z,16.33
2023-01-09T21:54:41.760Z,14.73
2023-01-09T21:57:10.092Z,13.50
2023-01-09T21:59:37.717Z,16.73
2023-01-09T22:02:06.616Z,16.48
2023-01-09T22:04:36.555Z,14.60
2023-01-09T22:07:04.516Z,18.08
2023-01-09T22:09:32.598Z,14.10
2023-01-09T22:12:00.184Z,18.90
2023-01-09T22:14:28.290Z,19.73
2023-01-09T22:16:55.769Z,15.73
2023-01-09T22:19:24.328Z,17.30
2023-01-09T22:21:52.296Z,19.20
2023-01-09T22:24:21.822Z,18.27
2023-01-09T22:26:49.653Z,18.50
2023-01-09T22:29:17.552Z,15.98
2023-01-09T22:31:45.493Z,17.83
2023-01-09T22:34:16.696Z,23.25
2023-01-09T22:36:49.620Z,17.52
2023-01-09T22:39:19.768Z,17.98
2023-01-09T22:41:54.499Z,21.77
2023-01-09T22:44:22.325Z,16.67
2023-01-09T22:46:50.247Z,18.10
2023-01-09T22:49:17.852Z,15.75
2023-01-09T22:51:45.334Z,17.63
2023-01-09T22:54:12.842Z,22.70
2023-01-09T22:56:40.347Z,21.35
2023-01-09T22:59:07.828Z,16.90
2023-01-09T23:01:35.362Z,19.73
2023-01-09T23:04:04.665Z,14.27
2023-01-09T23:06:32.131Z,20.08
2023-01-09T23:08:59.608Z,17.33
2023-01-09T23:11:49.087Z,18.17
2023-01-09T23:14:17.709Z,16.08
2023-01-09T23:16:45.188Z,18.75
2023-01-09T23:19:15.917Z,12.68
2023-01-09T23:21:45.305Z,16.27
2023-01-09T23:24:16.242Z,13.82
2023-01-09T23:26:44.659Z,21.75
2023-01-09T23:29:15.919Z,18.60
2023-01-09T23:31:43.477Z,16.05
2023-01-09T23:34:19.720Z,19.02
2023-01-09T23:36:50.035Z,16.08
2023-01-09T23:39:18.064Z,17.27
2023-01-09T23:42:04.656Z,18.00
2023-01-09T23:44:32.103Z,19.05
2023-01-09T23:46:59.576Z,17.90
2023-01-09T23:49:27.131Z,17.63
2023-01-09T23:51:54.639Z,16.98
2023-01-09T23:54:22.080Z,15.98
2023-01-09T23:56:49.629Z,16.63
2023-01-09T23:59:18.023Z,20.75
